createdAt,value
2022-11-24T00:02:16.868Z,84.78
2022-11-24T00:04:43.387Z,91.30
2022-11-24T00:07:09.830Z,89.18
2022-11-24T00:09:36.273Z,85.25
2022-11-24T00:12:02.787Z,88.45
2022-11-24T00:14:29.183Z,75.90
2022-11-24T00:16:55.628Z,79.57
2022-11-24T00:19:22.079Z,77.30
2022-11-24T00:21:48.466Z,79.30
2022-11-24T00:24:14.854Z,87.75
2022-11-24T00:26:41.460Z,70.28
2022-11-24T00:29:09.302Z,78.55
2022-11-24T00:31:38.797Z,79.13
2022-11-24T00:34:11.720Z,78.47
2022-11-24T00:36:38.709Z,91.75
2022-11-24T00:39:07.322Z,87.45
2022-11-24T00:41:34.578Z,87.38
2022-11-24T00:44:01.404Z,77.60
2022-11-24T00:46:28.518Z,89.43
2022-11-24T00:48:55.135Z,76.38
2022-11-24T00:51:24.160Z,97.80
2022-11-24T00:53:50.617Z,82.47
2022-11-24T00:56:17.000Z,82.53
2022-11-24T00:58:43.390Z,75.90
2022-11-24T01:01:19.048Z,88.65
2022-11-24T01:03:47.330Z,95.57
2022-11-24T01:06:23.041Z,98.68
2022-11-24T01:08:49.507Z,84.28
2022-11-24T01:11:27.698Z,81.35
2022-11-24T01:13:59.192Z,86.00
2022-11-24T01:16:31.495Z,87.65
2022-11-24T01:18:58.245Z,87.80
2022-11-24T01:21:24.745Z,83.75
2022-11-24T01:23:51.260Z,102.82
2022-11-24T01:26:21.101Z,84.45
2022-11-24T01:28:51.986Z,82.97
2022-11-24T01:31:18.429Z,87.32
2022-11-24T01:33:44.854Z,82.50
2022-11-24T01:36:11.341Z,85.07
2022-11-24T01:38:37.889Z,86.43
2022-11-24T01:41:05.474Z,84.70
2022-11-24T01:43:32.644Z,82.70
2022-11-24T01:46:04.662Z,80.80
2022-11-24T01:48:38.576Z,88.50
2022-11-24T01:51:14.879Z,103.30
2022-11-24T01:53:46.196Z,77.60
2022-11-24T01:56:13.662Z,95.07
2022-11-24T01:58:43.236Z,92.40
2022-11-24T02:01:10.667Z,113.82
2022-11-24T02:03:41.898Z,86.07
2022-11-24T02:06:14.085Z,92.78
2022-11-24T02:08:47.163Z,91.68
2022-11-24T02:11:13.555Z,83.47
2022-11-24T02:13:42.105Z,77.07
2022-11-24T02:16:11.578Z,120.28
2022-11-24T02:18:39.757Z,94.68
2022-11-24T02:21:06.895Z,86.85
2022-11-24T02:23:46.787Z,88.07
2022-11-24T02:26:26.138Z,86.60
2022-11-24T02:28:52.656Z,75.28
2022-11-24T02:31:19.278Z,92.85
2022-11-24T02:33:46.219Z,89.35
2022-11-24T02:36:12.638Z,94.50
2022-11-24T02:38:39.034Z,87.95
2022-11-24T02:41:11.645Z,103.38
2022-11-24T02:43:42.668Z,73.15
2022-11-24T02:46:10.792Z,79.68
2022-11-24T02:48:38.366Z,74.93
2022-11-24T02:51:05.292Z,79.28
2022-11-24T02:53:31.681Z,86.32
2022-11-24T02:55:58.058Z,94.80
2022-11-24T02:58:24.458Z,109.70
2022-11-24T03:00:54.130Z,81.75
2022-11-24T03:03:24.360Z,80.57
2022-11-24T03:05:50.736Z,88.17
2022-11-24T03:08:17.297Z,92.05
2022-11-24T03:10:43.728Z,81.38
2022-11-24T03:13:10.561Z,75.43
2022-11-24T03:15:37.530Z,73.35
2022-11-24T03:18:05.123Z,64.57
2022-11-24T03:20:31.534Z,78.00
2022-11-24T03:22:57.960Z,80.20
2022-11-24T03:25:24.395Z,73.75
2022-11-24T03:27:52.717Z,80.53
2022-11-24T03:30:19.175Z,74.38
2022-11-24T03:32:45.566Z,70.15
2022-11-24T03:35:12.082Z,69.95
2022-11-24T03:37:38.482Z,72.50
2022-11-24T03:40:05.355Z,81.32
2022-11-24T03:42:31.734Z,73.47
2022-11-24T03:45:01.638Z,69.63
2022-11-24T03:47:38.167Z,73.18
2022-11-24T03:50:04.849Z,75.85
2022-11-24T03:52:31.217Z,72.35
2022-11-24T03:54:57.602Z,97.43
2022-11-24T03:57:23.993Z,83.60
2022-11-24T03:59:50.381Z,92.97
2022-11-24T04:02:16.777Z,85.57
2022-11-24T04:04:48.485Z,98.75
2022-11-24T04:07:16.502Z,94.38
2022-11-24T04:09:42.967Z,107.03
2022-11-24T04:12:27.978Z,81.45
2022-11-24T04:14:54.354Z,98.55
2022-11-24T04:17:20.773Z,78.63
2022-11-24T04:19:47.148Z,83.50
2022-11-24T04:22:13.520Z,82.63
2022-11-24T04:24:39.931Z,99.30
2022-11-24T04:27:06.309Z,75.25
2022-11-24T04:29:32.739Z,81.18
2022-11-24T04:31:59.133Z,75.43
2022-11-24T04:34:25.526Z,76.68
2022-11-24T04:36:51.936Z,71.80
2022-11-24T04:39:24.793Z,71.35
2022-11-24T04:41:53.001Z,69.32
2022-11-24T04:44:19.466Z,65.65
2022-11-24T04:46:45.929Z,73.57
2022-11-24T04:49:12.457Z,78.50
2022-11-24T04:51:39.790Z,77.35
2022-11-24T04:54:13.781Z,92.47
2022-11-24T04:56:41.387Z,82.53
2022-11-24T04:59:08.576Z,65.80
2022-11-24T05:01:35.357Z,70.03
2022-11-24T05:04:01.885Z,67.90
2022-11-24T05:06:28.327Z,77.13
2022-11-24T05:08:54.748Z,73.95
2022-11-24T05:11:21.129Z,72.07
2022-11-24T05:13:47.538Z,68.70
2022-11-24T05:16:13.983Z,96.43
2022-11-24T05:18:40.454Z,71.85
2022-11-24T05:21:06.865Z,68.32
2022-11-24T05:23:33.248Z,72.90
2022-11-24T05:26:01.443Z,93.28
2022-11-24T05:28:28.160Z,85.50
2022-11-24T05:30:54.619Z,84.43
2022-11-24T05:33:22.915Z,75.30
2022-11-24T05:35:50.147Z,77.28
2022-11-24T05:38:17.825Z,75.40
2022-11-24T05:40:44.650Z,69.47
2022-11-24T05:43:15.523Z,75.72
2022-11-24T05:45:42.948Z,73.35
2022-11-24T05:48:12.332Z,77.82
2022-11-24T05:50:39.032Z,74.53
2022-11-24T05:53:07.513Z,75.45
2022-11-24T05:55:34.961Z,71.60
2022-11-24T05:58:03.819Z,78.78
2022-11-24T06:00:31.527Z,65.35
2022-11-24T06:02:58.610Z,80.57
2022-11-24T06:05:26.403Z,75.82
2022-11-24T06:07:53.151Z,66.43
2022-11-24T06:10:22.363Z,67.00
2022-11-24T06:12:48.744Z,74.05
2022-11-24T06:15:15.274Z,65.03
2022-11-24T06:17:41.647Z,67.80
2022-11-24T06:20:09.549Z,65.57
2022-11-24T06:22:36.147Z,79.47
2022-11-24T06:25:02.630Z,76.10
2022-11-24T06:27:29.006Z,84.72
2022-11-24T06:29:55.395Z,74.00
2022-11-24T06:32:21.919Z,75.95
2022-11-24T06:34:48.310Z,81.30
2022-11-24T06:37:14.722Z,72.18
2022-11-24T06:39:41.121Z,72.25
2022-11-24T06:42:07.504Z,67.45
2022-11-24T06:44:34.268Z,71.20
2022-11-24T06:47:00.843Z,77.15
2022-11-24T06:49:27.224Z,61.28
2022-11-24T06:51:54.764Z,69.90
2022-11-24T06:54:21.437Z,65.85
2022-11-24T06:56:47.844Z,72.32
2022-11-24T06:59:19.622Z,68.90
2022-11-24T07:01:46.896Z,71.80
2022-11-24T07:04:13.650Z,74.70
2022-11-24T07:06:41.306Z,78.63
2022-11-24T07:09:12.451Z,73.13
2022-11-24T07:14:05.903Z,65.18
2022-11-24T07:16:32.670Z,76.60
2022-11-24T07:18:59.841Z,71.93
2022-11-24T07:21:28.064Z,74.97
2022-11-24T07:23:56.682Z,69.82
2022-11-24T07:26:23.754Z,66.03
2022-11-24T07:28:50.816Z,71.40
2022-11-24T07:31:19.609Z,67.28
2022-11-24T07:33:49.904Z,71.75
2022-11-24T07:36:16.352Z,66.47
2022-11-24T07:38:42.780Z,67.45
2022-11-24T07:41:11.756Z,65.50
2022-11-24T07:43:38.750Z,62.38
2022-11-24T07:46:08.636Z,63.63
2022-11-24T07:48:35.179Z,62.33
2022-11-24T07:51:03.483Z,60.92
2022-11-24T07:53:30.742Z,63.08
2022-11-24T07:56:01.521Z,68.10
2022-11-24T07:58:33.470Z,66.50
2022-11-24T08:01:00.774Z,71.65
2022-11-24T08:03:27.908Z,64.40
2022-11-24T08:08:46.488Z,64.85
2022-11-24T08:11:17.937Z,70.45
2022-11-24T08:13:44.759Z,67.35
2022-11-24T08:16:16.665Z,66.25
2022-11-24T08:18:43.677Z,62.13
2022-11-24T08:21:13.816Z,65.47
2022-11-24T08:23:40.354Z,61.15
2022-11-24T08:26:09.262Z,65.88
2022-11-24T08:28:36.469Z,67.53
2022-11-24T08:31:04.841Z,63.83
2022-11-24T08:33:31.524Z,60.75
2022-11-24T08:36:03.767Z,60.70
2022-11-24T08:38:30.182Z,66.00
2022-11-24T08:41:01.252Z,65.05
2022-11-24T08:45:54.139Z,62.78
2022-11-24T08:48:20.611Z,58.80
2022-11-24T08:50:47.008Z,62.63
2022-11-24T08:53:13.394Z,61.45
2022-11-24T08:55:39.800Z,60.55
2022-11-24T08:58:06.198Z,64.13
2022-11-24T09:00:32.757Z,69.88
2022-11-24T09:02:59.531Z,66.35
2022-11-24T09:05:50.700Z,63.88
2022-11-24T09:08:12.312Z,62.45
2022-11-24T09:10:38.730Z,62.42
2022-11-24T09:13:05.153Z,61.72
2022-11-24T09:15:31.587Z,69.75
2022-11-24T09:17:57.970Z,65.40
2022-11-24T09:20:24.378Z,61.08
2022-11-24T09:22:50.765Z,68.15
2022-11-24T09:25:17.302Z,72.82
2022-11-24T09:27:43.685Z,68.68
2022-11-24T09:30:10.689Z,64.13
2022-11-24T09:32:37.630Z,64.75
2022-11-24T09:35:04.446Z,66.90
2022-11-24T09:37:32.877Z,63.95
2022-11-24T09:39:59.638Z,65.57
2022-11-24T09:42:43.236Z,69.72
2022-11-24T09:45:19.991Z,65.30
2022-11-24T09:48:08.840Z,68.78
2022-11-24T09:50:37.652Z,65.20
2022-11-24T09:53:16.076Z,72.28
2022-11-24T09:55:58.832Z,60.70
2022-11-24T09:58:44.612Z,69.15
2022-11-24T10:01:16.991Z,69.78
2022-11-24T10:03:46.144Z,62.67
2022-11-24T10:07:00.332Z,69.82
2022-11-24T10:09:45.370Z,66.50
2022-11-24T10:12:49.775Z,58.80
2022-11-24T10:15:25.367Z,71.18
2022-11-24T10:18:13.263Z,60.97
2022-11-24T10:21:05.567Z,66.63
2022-11-24T10:23:55.080Z,62.75
2022-11-24T10:26:36.067Z,70.75
2022-11-24T10:29:26.142Z,68.32
2022-11-24T10:31:55.711Z,65.50
2022-11-24T10:34:39.685Z,64.22
2022-11-24T10:37:27.885Z,60.35
2022-11-24T10:40:49.075Z,61.08
2022-11-24T10:43:11.639Z,66.05
2022-11-24T10:45:39.495Z,65.55
2022-11-24T10:48:19.776Z,64.22
2022-11-24T10:50:46.200Z,54.10
2022-11-24T10:53:24.411Z,71.97
2022-11-24T10:55:58.756Z,70.13
2022-11-24T10:58:38.702Z,64.90
2022-11-24T11:01:14.159Z,69.95
2022-11-24T11:03:55.586Z,74.45
2022-11-24T11:06:32.170Z,64.85
2022-11-24T11:09:26.160Z,67.60
2022-11-24T11:12:42.242Z,67.13
2022-11-24T11:14:56.951Z,68.50
2022-11-24T11:17:35.829Z,68.88
2022-11-24T11:20:34.074Z,63.97
2022-11-24T11:23:13.231Z,69.38
2022-11-24T11:25:41.089Z,62.72
2022-11-24T11:28:18.693Z,69.78
2022-11-24T11:34:22.135Z,69.53
2022-11-24T11:36:56.124Z,63.05
2022-11-24T11:39:34.903Z,75.63
2022-11-24T11:42:31.324Z,69.07
2022-11-24T11:45:03.577Z,61.42
2022-11-24T11:47:43.432Z,66.07
2022-11-24T11:50:20.583Z,66.93
2022-11-24T11:53:10.502Z,59.90
2022-11-24T11:56:07.309Z,68.47
2022-11-24T11:58:50.765Z,61.85
2022-11-24T12:01:46.187Z,70.47
2022-11-24T12:04:52.552Z,66.53
2022-11-24T12:07:45.621Z,71.75
2022-11-24T12:10:38.928Z,67.15
2022-11-24T12:13:33.673Z,67.18
2022-11-24T12:16:25.075Z,61.80
2022-11-24T12:19:14.485Z,66.53
2022-11-24T12:22:03.401Z,67.40
2022-11-24T12:24:54.826Z,63.35
2022-11-24T12:28:01.933Z,61.75
2022-11-24T12:30:58.750Z,65.78
2022-11-24T12:33:39.146Z,65.65
2022-11-24T12:36:33.387Z,67.30
2022-11-24T12:39:19.583Z,63.70
2022-11-24T12:42:12.366Z,61.72
2022-11-24T12:45:12.922Z,64.85
2022-11-24T12:48:13.370Z,64.13
2022-11-24T12:50:43.880Z,59.53
2022-11-24T12:53:21.992Z,64.78
2022-11-24T12:55:48.720Z,61.20
2022-11-24T12:58:52.006Z,64.35
2022-11-24T13:01:21.576Z,66.63
2022-11-24T13:04:04.975Z,69.30
2022-11-24T13:06:45.842Z,60.28
2022-11-24T13:09:15.462Z,69.55
2022-11-24T13:11:44.461Z,62.28
2022-11-24T13:14:17.568Z,62.92
2022-11-24T13:17:21.911Z,62.97
2022-11-24T13:19:41.508Z,62.88
2022-11-24T13:22:07.833Z,63.00
2022-11-24T13:24:36.953Z,61.58
2022-11-24T13:27:15.958Z,61.88
2022-11-24T13:29:45.294Z,58.47
2022-11-24T13:32:14.541Z,65.15
2022-11-24T13:34:41.212Z,60.10
2022-11-24T13:37:31.271Z,63.10
2022-11-24T13:40:22.731Z,67.10
2022-11-24T13:42:55.008Z,61.88
2022-11-24T13:45:49.791Z,62.75
2022-11-24T13:48:19.254Z,59.00
2022-11-24T13:50:53.099Z,66.20
2022-11-24T13:53:41.239Z,59.72
2022-11-24T13:56:13.628Z,59.50
2022-11-24T13:58:52.155Z,68.13
2022-11-24T14:01:24.831Z,63.05
2022-11-24T14:04:28.014Z,65.15
2022-11-24T14:06:52.948Z,57.90
2022-11-24T14:09:31.234Z,66.35
2022-11-24T14:12:31.327Z,67.88
2022-11-24T14:15:23.156Z,61.80
2022-11-24T14:17:49.571Z,67.57
2022-11-24T14:20:23.830Z,62.00
2022-11-24T14:22:50.567Z,59.72
2022-11-24T14:25:35.413Z,63.78
2022-11-24T14:28:02.188Z,70.78
2022-11-24T14:30:28.826Z,69.82
2022-11-24T14:33:03.394Z,71.57
2022-11-24T14:35:31.885Z,71.05
2022-11-24T14:38:01.134Z,64.57
2022-11-24T14:40:45.279Z,67.85
2022-11-24T14:43:25.898Z,67.85
2022-11-24T14:45:58.736Z,72.93
2022-11-24T14:48:31.542Z,60.88
2022-11-24T14:51:07.750Z,64.15
2022-11-24T14:53:35.397Z,68.05
2022-11-24T14:56:10.012Z,65.60
2022-11-24T14:58:41.812Z,68.15
2022-11-24T15:01:29.485Z,67.75
2022-11-24T15:07:25.694Z,70.50
2022-11-24T15:09:57.638Z,65.85
2022-11-24T15:12:30.555Z,66.20
2022-11-24T15:15:02.658Z,69.40
2022-11-24T15:17:30.069Z,64.05
2022-11-24T15:20:16.829Z,66.05
2022-11-24T15:22:46.358Z,68.90
2022-11-24T15:25:28.339Z,67.72
2022-11-24T15:27:55.044Z,70.88
2022-11-24T15:30:21.545Z,75.40
2022-11-24T15:32:56.065Z,63.03
2022-11-24T15:35:25.018Z,68.18
2022-11-24T15:37:51.484Z,63.95
2022-11-24T15:40:18.991Z,66.95
2022-11-24T15:42:51.277Z,66.90
2022-11-24T15:45:18.829Z,65.10
2022-11-24T15:47:45.253Z,71.38
2022-11-24T15:50:12.254Z,66.45
2022-11-24T15:52:39.363Z,70.57
2022-11-24T15:55:06.680Z,74.35
2022-11-24T15:57:34.142Z,68.47
2022-11-24T16:00:00.751Z,65.70
2022-11-24T16:02:27.223Z,70.22
2022-11-24T16:04:53.662Z,68.57
2022-11-24T16:07:20.121Z,72.80
2022-11-24T16:09:46.559Z,66.63
2022-11-24T16:12:13.000Z,66.25
2022-11-24T16:14:39.492Z,71.63
2022-11-24T16:17:06.077Z,71.00
2022-11-24T16:19:34.217Z,62.55
2022-11-24T16:22:03.819Z,67.70
2022-11-24T16:24:30.202Z,71.78
2022-11-24T16:26:56.598Z,67.80
2022-11-24T16:29:24.212Z,74.03
2022-11-24T16:31:54.115Z,65.82
2022-11-24T16:34:20.593Z,66.30
2022-11-24T16:36:47.066Z,68.95
2022-11-24T16:39:13.441Z,69.55
2022-11-24T16:41:39.866Z,66.65
2022-11-24T16:44:06.316Z,70.97
2022-11-24T16:46:32.758Z,66.03
2022-11-24T16:49:03.600Z,67.75
2022-11-24T16:51:34.691Z,65.10
2022-11-24T16:54:02.834Z,63.80
2022-11-24T16:56:29.970Z,61.10
2022-11-24T16:58:56.624Z,60.67
2022-11-24T17:01:23.572Z,61.50
2022-11-24T17:03:50.002Z,61.08
2022-11-24T17:06:17.152Z,63.90
2022-11-24T17:08:45.496Z,64.70
2022-11-24T17:11:15.164Z,63.42
2022-11-24T17:13:42.219Z,65.28
2022-11-24T17:16:10.828Z,66.82
2022-11-24T17:18:38.475Z,67.35
2022-11-24T17:21:09.755Z,66.75
2022-11-24T17:23:37.140Z,57.40
2022-11-24T17:26:10.125Z,68.50
2022-11-24T17:28:36.625Z,61.28
2022-11-24T17:31:17.900Z,62.83
2022-11-24T17:36:10.608Z,58.33
2022-11-24T17:38:37.005Z,61.22
2022-11-24T17:41:03.533Z,64.38
2022-11-24T17:43:29.954Z,63.90
2022-11-24T17:45:59.058Z,59.67
2022-11-24T17:48:25.850Z,65.15
2022-11-24T17:51:09.993Z,61.05
2022-11-24T17:53:37.493Z,62.72
2022-11-24T17:56:04.757Z,71.85
2022-11-24T17:58:38.332Z,65.15
2022-11-24T18:01:08.496Z,60.35
2022-11-24T18:03:35.126Z,64.80
2022-11-24T18:06:12.670Z,57.40
2022-11-24T18:08:41.114Z,60.25
2022-11-24T18:11:30.513Z,63.33
2022-11-24T18:14:01.419Z,61.05
2022-11-24T18:16:30.236Z,67.80
2022-11-24T18:19:14.333Z,62.55
2022-11-24T18:21:42.162Z,66.72
2022-11-24T18:24:10.268Z,68.75
2022-11-24T18:26:37.246Z,69.50
2022-11-24T18:29:04.124Z,61.55
2022-11-24T18:31:31.168Z,61.22
2022-11-24T18:33:57.694Z,60.35
2022-11-24T18:36:29.926Z,57.90
2022-11-24T18:38:57.558Z,64.13
2022-11-24T18:41:23.956Z,53.72
2022-11-24T18:43:50.341Z,53.95
2022-11-24T18:46:17.659Z,54.25
2022-11-24T18:48:44.869Z,56.03
2022-11-24T18:51:14.947Z,60.35
2022-11-24T18:53:43.087Z,58.92
2022-11-24T18:56:15.628Z,59.97
2022-11-24T18:58:43.233Z,54.00
2022-11-24T19:01:21.294Z,62.63
2022-11-24T19:03:52.913Z,56.70
2022-11-24T19:06:20.501Z,61.78
2022-11-24T19:08:47.544Z,59.03
2022-11-24T19:11:19.778Z,62.15
2022-11-24T19:13:47.599Z,67.38
2022-11-24T19:16:14.438Z,77.18
2022-11-24T19:18:40.917Z,71.80
2022-11-24T19:21:07.317Z,68.05
2022-11-24T19:23:33.847Z,62.63
2022-11-24T19:26:04.728Z,64.88
2022-11-24T19:28:31.790Z,68.15
2022-11-24T19:31:01.869Z,67.50
2022-11-24T19:33:28.353Z,64.13
2022-11-24T19:36:27.422Z,66.55
2022-11-24T19:38:55.679Z,66.43
2022-11-24T19:41:24.798Z,71.53
2022-11-24T19:43:54.659Z,66.75
2022-11-24T19:46:22.901Z,67.88
2022-11-24T19:48:50.948Z,65.32
2022-11-24T19:51:22.770Z,69.63
2022-11-24T19:53:49.285Z,64.30
2022-11-24T19:56:24.296Z,69.22
2022-11-24T19:58:52.040Z,73.47
2022-11-24T20:01:21.496Z,82.28
2022-11-24T20:03:53.662Z,83.05
2022-11-24T20:06:20.051Z,78.45
2022-11-24T20:08:46.472Z,77.25
2022-11-24T20:11:15.673Z,79.35
2022-11-24T20:13:44.371Z,74.57
2022-11-24T20:16:14.163Z,75.00
2022-11-24T20:18:43.868Z,96.93
2022-11-24T20:21:13.739Z,152.70
2022-11-24T20:23:41.194Z,107.03
2022-11-24T20:26:22.882Z,103.28
2022-11-24T20:28:49.890Z,103.18
2022-11-24T20:31:18.895Z,79.88
2022-11-24T20:33:45.904Z,81.50
2022-11-24T20:36:21.192Z,109.45
2022-11-24T20:38:49.381Z,80.97
2022-11-24T20:41:27.032Z,92.68
2022-11-24T20:43:55.021Z,83.85
2022-11-24T20:46:26.790Z,79.20
2022-11-24T20:48:54.128Z,121.30
2022-11-24T20:51:24.037Z,125.68
2022-11-24T20:53:52.096Z,67.45
2022-11-24T20:56:26.855Z,88.03
2022-11-24T20:58:53.681Z,103.35
2022-11-24T21:01:42.116Z,122.00
2022-11-24T21:04:11.476Z,80.95
2022-11-24T21:06:38.439Z,87.63
2022-11-24T21:09:07.851Z,83.43
2022-11-24T21:11:34.970Z,101.20
2022-11-24T21:14:02.027Z,78.80
2022-11-24T21:16:30.817Z,94.10
2022-11-24T21:19:09.403Z,64.90
2022-11-24T21:21:37.645Z,81.55
2022-11-24T21:24:15.985Z,73.72
2022-11-24T21:26:43.828Z,89.32
2022-11-24T21:29:12.977Z,68.00
2022-11-24T21:31:39.504Z,68.53
2022-11-24T21:34:07.383Z,71.25
2022-11-24T21:36:35.019Z,67.63
2022-11-24T21:39:02.715Z,65.18
2022-11-24T21:41:32.213Z,61.45
2022-11-24T21:43:58.601Z,60.45
2022-11-24T21:46:25.019Z,66.25
2022-11-24T21:48:51.544Z,54.95
2022-11-24T21:51:20.078Z,57.53
2022-11-24T21:53:47.278Z,68.97
2022-11-24T21:56:19.187Z,54.08
2022-11-24T21:58:54.650Z,55.58
2022-11-24T22:01:27.823Z,66.07
2022-11-24T22:03:54.813Z,54.60
2022-11-24T22:06:21.569Z,54.97
2022-11-24T22:08:48.636Z,48.60
2022-11-24T22:11:20.863Z,62.80
2022-11-24T22:13:48.222Z,55.60
2022-11-24T22:16:17.597Z,47.05
2022-11-24T22:18:45.205Z,60.28
2022-11-24T22:21:20.873Z,53.22
2022-11-24T22:23:50.722Z,56.83
2022-11-24T22:26:19.329Z,59.72
2022-11-24T22:28:45.815Z,54.55
2022-11-24T22:31:15.038Z,55.35
2022-11-24T22:33:42.078Z,56.42
2022-11-24T22:36:09.733Z,48.13
2022-11-24T22:38:36.922Z,55.72
2022-11-24T22:41:08.045Z,52.83
2022-11-24T22:46:10.940Z,50.00
2022-11-24T22:48:38.029Z,63.35
2022-11-24T22:51:07.045Z,49.55
2022-11-24T22:53:33.786Z,53.90
2022-11-24T22:56:01.637Z,46.90
2022-11-24T22:58:28.454Z,50.80
2022-11-24T23:00:54.851Z,40.38
2022-11-24T23:03:21.303Z,42.65
2022-11-24T23:05:47.745Z,45.78
2022-11-24T23:08:14.213Z,43.65
2022-11-24T23:10:40.670Z,42.47
2022-11-24T23:13:07.081Z,46.50
2022-11-24T23:15:33.467Z,40.50
2022-11-24T23:17:59.871Z,44.30
2022-11-24T23:20:26.246Z,43.97
2022-11-24T23:22:53.216Z,47.65
2022-11-24T23:25:19.596Z,46.17
2022-11-24T23:27:45.981Z,45.45
2022-11-24T23:30:12.413Z,43.88
2022-11-24T23:32:38.818Z,51.75
2022-11-24T23:35:08.521Z,49.85
2022-11-24T23:38:05.920Z,43.88
2022-11-24T23:40:25.227Z,39.72
2022-11-24T23:42:52.034Z,39.25
2022-11-24T23:45:18.419Z,36.70
2022-11-24T23:47:44.809Z,35.03
2022-11-24T23:50:11.395Z,34.30
2022-11-24T23:52:37.801Z,32.25
2022-11-24T23:55:04.656Z,37.30
2022-11-24T23:57:31.335Z,37.53
2022-11-24T23:59:57.722Z,34.97
